createdAt,value
2022-10-18T00:00:41.562Z,101137.16
2022-10-18T00:01:43.932Z,101143.09
2022-10-18T00:02:45.675Z,101137.88
2022-10-18T00:03:47.502Z,101143.25
2022-10-18T00:04:49.253Z,101142.41
2022-10-18T00:05:51.258Z,101140.72
2022-10-18T00:06:52.947Z,101138.84
2022-10-18T00:07:54.683Z,101130.78
2022-10-18T00:08:56.481Z,101137.16
2022-10-18T00:09:58.161Z,101132.66
2022-10-18T00:10:59.823Z,101136.34
2022-10-18T00:12:01.687Z,101138.19
2022-10-18T00:13:03.691Z,101130.09
2022-10-18T00:14:05.424Z,101136.50
2022-10-18T00:15:08.175Z,101131.28
2022-10-18T00:16:15.443Z,101114.91
2022-10-18T00:17:17.333Z,101122.03
2022-10-18T00:18:19.876Z,101124.72
2022-10-18T00:19:24.751Z,101123.03
2022-10-18T00:20:29.008Z,101127.41
2022-10-18T00:21:30.766Z,101130.09
2022-10-18T00:22:35.455Z,101119.84
2022-10-18T00:23:37.662Z,101107.84
2022-10-18T00:24:39.401Z,101116.59
2022-10-18T00:25:41.139Z,101128.59
2022-10-18T00:26:42.923Z,101127.06
2022-10-18T00:27:44.911Z,101115.28
2022-10-18T00:28:50.219Z,101111.78
2022-10-18T00:29:55.128Z,101112.59
2022-10-18T00:30:56.959Z,101110.75
2022-10-18T00:31:58.671Z,101106.38
2022-10-18T00:33:00.394Z,101102.97
2022-10-18T00:34:05.502Z,101103.81
2022-10-18T00:35:08.522Z,101109.19
2022-10-18T00:36:11.582Z,101095.72
2022-10-18T00:37:13.259Z,101105.00
2022-10-18T00:38:15.034Z,101106.50
2022-10-18T00:39:18.908Z,101093.38
2022-10-18T00:40:20.696Z,101078.88
2022-10-18T00:41:25.366Z,101089.66
2022-10-18T00:42:32.040Z,101085.16
2022-10-18T00:43:50.502Z,101074.19
2022-10-18T00:44:52.185Z,101084.53
2022-10-18T00:45:53.879Z,101084.84
2022-10-18T00:47:03.464Z,101084.97
2022-10-18T00:48:05.414Z,101079.25
2022-10-18T00:49:17.727Z,101072.16
2022-10-18T00:50:21.007Z,101090.34
2022-10-18T00:51:23.670Z,101090.53
2022-10-18T00:52:35.681Z,101087.16
2022-10-18T00:53:38.034Z,101086.84
2022-10-18T00:54:44.555Z,101079.91
2022-10-18T00:55:46.886Z,101081.59
2022-10-18T00:56:49.102Z,101087.16
2022-10-18T00:57:51.812Z,101084.63
2022-10-18T00:58:54.288Z,101086.47
2022-10-18T00:59:56.271Z,101082.94
2022-10-18T01:00:57.934Z,101082.94
2022-10-18T01:01:59.816Z,101077.56
2022-10-18T01:03:01.677Z,101077.56
2022-10-18T01:04:03.631Z,101074.19
2022-10-18T01:05:06.058Z,101076.88
2022-10-18T01:06:09.017Z,101073.34
2022-10-18T01:07:25.864Z,101078.91
2022-10-18T01:08:27.659Z,101080.09
2022-10-18T01:09:45.883Z,101084.28
2022-10-18T01:11:04.390Z,101085.16
2022-10-18T01:12:33.161Z,101079.78
2022-10-18T01:14:02.123Z,101046.72
2022-10-18T01:15:13.516Z,101080.31
2022-10-18T01:16:53.485Z,101073.03
2022-10-18T01:18:12.297Z,101085.34
2022-10-18T01:19:38.278Z,101080.31
2022-10-18T01:20:49.322Z,101084.69
2022-10-18T01:22:19.241Z,101079.28
2022-10-18T01:23:38.695Z,101083.84
2022-10-18T01:26:29.539Z,101085.16
2022-10-18T01:27:55.447Z,101079.78
2022-10-18T01:29:11.879Z,101085.97
2022-10-18T01:30:32.129Z,101082.28
2022-10-18T01:31:44.190Z,101083.78
2022-10-18T01:32:50.842Z,101085.81
2022-10-18T01:33:58.602Z,101078.06
2022-10-18T01:35:06.265Z,101068.09
2022-10-18T01:36:17.638Z,101078.84
2022-10-18T01:37:22.013Z,101074.84
2022-10-18T01:38:25.563Z,101078.53
2022-10-18T01:39:32.042Z,101083.22
2022-10-18T01:40:35.794Z,101080.69
2022-10-18T01:41:41.361Z,101083.38
2022-10-18T01:42:45.674Z,101090.44
2022-10-18T01:43:51.704Z,101084.22
2022-10-18T01:44:55.040Z,101088.75
2022-10-18T01:45:59.698Z,101065.38
2022-10-18T01:47:01.494Z,101077.16
2022-10-18T01:48:03.809Z,101086.25
2022-10-18T01:49:05.791Z,101082.56
2022-10-18T01:50:07.889Z,101076.81
2022-10-18T01:51:10.295Z,101067.22
2022-10-18T01:52:16.444Z,101081.00
2022-10-18T01:53:23.353Z,101079.19
2022-10-18T01:54:34.104Z,101075.50
2022-10-18T01:55:46.339Z,101071.94
2022-10-18T01:57:24.482Z,101073.16
2022-10-18T01:58:37.248Z,101083.25
2022-10-18T02:00:00.997Z,101074.66
2022-10-18T02:02:36.954Z,101078.19
2022-10-18T02:03:46.087Z,101072.81
2022-10-18T02:05:08.851Z,101071.13
2022-10-18T02:06:27.249Z,101075.38
2022-10-18T02:08:12.365Z,101071.00
2022-10-18T02:09:33.347Z,101068.81
2022-10-18T02:10:48.551Z,101074.38
2022-10-18T02:11:54.057Z,101080.22
2022-10-18T02:12:58.142Z,101075.50
2022-10-18T02:14:12.530Z,101069.09
2022-10-18T02:15:19.897Z,101076.31
2022-10-18T02:16:44.400Z,101070.47
2022-10-18T02:17:48.978Z,101059.00
2022-10-18T02:19:07.895Z,101068.41
2022-10-18T02:20:11.596Z,101072.47
2022-10-18T02:21:18.259Z,101068.41
2022-10-18T02:22:20.907Z,101060.00
2022-10-18T02:23:24.666Z,101064.19
2022-10-18T02:24:34.603Z,101055.44
2022-10-18T02:25:37.066Z,101059.66
2022-10-18T02:26:39.264Z,101044.69
2022-10-18T02:27:41.338Z,101056.31
2022-10-18T02:28:43.905Z,101054.63
2022-10-18T02:29:46.337Z,101042.16
2022-10-18T02:31:03.165Z,101048.38
2022-10-18T02:32:26.346Z,101044.69
2022-10-18T02:33:34.250Z,101053.97
2022-10-18T02:34:41.297Z,101047.91
2022-10-18T02:35:52.623Z,101045.22
2022-10-18T02:36:58.039Z,101048.91
2022-10-18T02:38:00.318Z,101054.28
2022-10-18T02:39:08.033Z,101051.38
2022-10-18T02:40:10.854Z,101051.25
2022-10-18T02:41:12.583Z,101056.31
2022-10-18T02:42:15.383Z,101056.63
2022-10-18T02:43:17.163Z,101062.00
2022-10-18T02:44:18.920Z,101059.31
2022-10-18T02:45:21.167Z,101046.34
2022-10-18T02:46:23.119Z,101051.25
2022-10-18T02:47:24.799Z,101052.94
2022-10-18T02:48:26.548Z,101046.69
2022-10-18T02:49:28.227Z,101047.88
2022-10-18T02:50:29.891Z,101050.56
2022-10-18T02:51:32.042Z,101044.19
2022-10-18T02:52:33.774Z,101052.25
2022-10-18T02:53:35.538Z,101044.31
2022-10-18T02:54:37.225Z,101050.56
2022-10-18T02:55:38.946Z,101054.94
2022-10-18T02:56:40.721Z,101054.25
2022-10-18T02:57:42.618Z,101051.38
2022-10-18T02:58:44.418Z,101044.97
2022-10-18T02:59:46.170Z,101051.88
2022-10-18T03:00:50.704Z,101051.56
2022-10-18T03:01:52.410Z,101053.94
2022-10-18T03:02:54.900Z,101046.88
2022-10-18T03:03:57.474Z,101044.19
2022-10-18T03:04:59.243Z,101037.44
2022-10-18T03:06:00.940Z,101053.25
2022-10-18T03:07:02.775Z,101046.47
2022-10-18T03:08:04.807Z,101051.56
2022-10-18T03:09:07.077Z,101053.25
2022-10-18T03:10:09.078Z,101054.25
2022-10-18T03:11:10.991Z,101055.94
2022-10-18T03:12:13.123Z,101054.25
2022-10-18T03:13:14.792Z,101046.19
2022-10-18T03:14:16.534Z,101048.19
2022-10-18T03:15:18.325Z,101056.09
2022-10-18T03:16:20.026Z,101052.56
2022-10-18T03:17:21.691Z,101046.19
2022-10-18T03:18:23.427Z,101049.03
2022-10-18T03:19:25.154Z,101051.72
2022-10-18T03:20:26.947Z,101049.88
2022-10-18T03:21:28.640Z,101057.09
2022-10-18T03:22:30.381Z,101044.78
2022-10-18T03:23:32.212Z,101047.19
2022-10-18T03:24:33.957Z,101049.88
2022-10-18T03:25:35.672Z,101061.66
2022-10-18T03:26:37.446Z,101062.31
2022-10-18T03:27:39.199Z,101063.34
2022-10-18T03:28:40.921Z,101071.41
2022-10-18T03:29:42.740Z,101069.72
2022-10-18T03:30:44.500Z,101072.41
2022-10-18T03:31:46.276Z,101061.78
2022-10-18T03:32:48.055Z,101073.38
2022-10-18T03:33:49.891Z,101065.31
2022-10-18T03:34:51.650Z,101058.97
2022-10-18T03:35:53.734Z,101058.97
2022-10-18T03:36:55.459Z,101059.94
2022-10-18T03:37:57.171Z,101064.34
2022-10-18T03:38:59.003Z,101053.88
2022-10-18T03:40:00.807Z,101049.13
2022-10-18T03:41:02.536Z,101055.41
2022-10-18T03:42:04.298Z,101065.31
2022-10-18T03:43:05.992Z,101063.63
2022-10-18T03:44:07.735Z,101055.56
2022-10-18T03:45:10.121Z,101063.47
2022-10-18T03:46:11.903Z,101059.94
2022-10-18T03:47:13.751Z,101064.47
2022-10-18T03:48:15.547Z,101055.56
2022-10-18T03:49:17.319Z,101053.72
2022-10-18T03:50:19.184Z,101042.75
2022-10-18T03:51:20.902Z,101057.25
2022-10-18T03:52:22.579Z,101053.72
2022-10-18T03:53:24.261Z,101055.56
2022-10-18T03:54:26.075Z,101052.03
2022-10-18T03:55:27.739Z,101055.56
2022-10-18T03:56:29.414Z,101055.56
2022-10-18T03:57:31.219Z,101052.69
2022-10-18T03:59:35.618Z,101063.81
2022-10-18T04:00:37.586Z,101061.94
2022-10-18T04:01:39.491Z,101054.03
2022-10-18T04:02:41.363Z,101063.28
2022-10-18T04:03:43.054Z,101062.94
2022-10-18T04:04:44.843Z,101067.50
2022-10-18T04:05:47.539Z,101063.13
2022-10-18T04:06:49.419Z,101059.56
2022-10-18T04:07:51.155Z,101061.25
2022-10-18T04:08:52.863Z,101058.38
2022-10-18T04:09:54.533Z,101058.56
2022-10-18T04:10:57.203Z,101066.50
2022-10-18T04:11:59.070Z,101072.88
2022-10-18T04:13:00.887Z,101072.00
2022-10-18T04:14:02.599Z,101066.63
2022-10-18T04:15:04.535Z,101066.63
2022-10-18T04:16:06.447Z,101054.84
2022-10-18T04:17:08.203Z,101064.94
2022-10-18T04:18:09.903Z,101062.25
2022-10-18T04:19:11.638Z,101052.34
2022-10-18T04:20:13.745Z,101064.13
2022-10-18T04:21:15.458Z,101070.34
2022-10-18T04:22:17.191Z,101066.81
2022-10-18T04:23:18.930Z,101071.34
2022-10-18T04:24:20.730Z,101064.13
2022-10-18T04:25:22.525Z,101070.34
2022-10-18T04:26:24.236Z,101066.81
2022-10-18T04:27:25.958Z,101067.63
2022-10-18T04:28:27.824Z,101065.97
2022-10-18T04:29:29.507Z,101064.94
2022-10-18T04:30:31.224Z,101073.03
2022-10-18T04:31:33.056Z,101067.63
2022-10-18T04:32:35.575Z,101079.25
2022-10-18T04:33:37.892Z,101070.34
2022-10-18T04:34:39.618Z,101066.63
2022-10-18T04:35:41.387Z,101068.50
2022-10-18T04:36:43.222Z,101072.00
2022-10-18T04:37:44.924Z,101072.00
2022-10-18T04:38:46.836Z,101066.63
2022-10-18T04:39:51.322Z,101066.63
2022-10-18T04:40:55.402Z,101062.94
2022-10-18T04:41:57.197Z,101059.44
2022-10-18T04:42:58.890Z,101060.44
2022-10-18T04:44:00.627Z,101064.81
2022-10-18T04:45:02.396Z,101060.44
2022-10-18T04:46:04.182Z,101059.56
2022-10-18T04:47:06.117Z,101066.63
2022-10-18T04:48:08.103Z,101065.63
2022-10-18T04:49:09.835Z,101067.63
2022-10-18T04:50:11.502Z,101061.25
2022-10-18T04:51:13.437Z,101056.84
2022-10-18T04:52:15.119Z,101072.00
2022-10-18T04:53:17.850Z,101066.63
2022-10-18T04:54:20.383Z,101071.00
2022-10-18T04:55:23.767Z,101071.19
2022-10-18T04:56:25.544Z,101067.50
2022-10-18T04:57:27.391Z,101064.44
2022-10-18T04:58:29.120Z,101074.88
2022-10-18T04:59:30.853Z,101077.41
2022-10-18T05:00:36.458Z,101075.72
2022-10-18T05:01:40.865Z,101084.47
2022-10-18T05:02:42.678Z,101073.19
2022-10-18T05:03:44.696Z,101079.25
2022-10-18T05:04:46.354Z,101080.09
2022-10-18T05:06:01.387Z,101078.72
2022-10-18T05:07:06.099Z,101082.44
2022-10-18T05:08:07.969Z,101077.06
2022-10-18T05:09:09.777Z,101080.78
2022-10-18T05:10:11.526Z,101071.69
2022-10-18T05:11:13.420Z,101075.38
2022-10-18T05:12:15.271Z,101080.47
2022-10-18T05:13:17.241Z,101067.81
2022-10-18T05:14:19.137Z,101081.16
2022-10-18T05:15:20.843Z,101083.53
2022-10-18T05:16:22.680Z,101083.53
2022-10-18T05:17:24.450Z,101072.22
2022-10-18T05:18:26.206Z,101079.00
2022-10-18T05:19:27.873Z,101085.06
2022-10-18T05:20:29.731Z,101084.75
2022-10-18T05:21:31.578Z,101089.66
2022-10-18T05:22:33.525Z,101086.63
2022-10-18T05:23:35.510Z,101083.94
2022-10-18T05:24:37.227Z,101098.44
2022-10-18T05:25:40.093Z,101098.13
2022-10-18T05:26:41.763Z,101100.50
2022-10-18T05:27:43.495Z,101100.88
2022-10-18T05:28:45.201Z,101098.00
2022-10-18T05:29:46.981Z,101101.22
2022-10-18T05:30:48.733Z,101099.91
2022-10-18T05:31:50.640Z,101095.88
2022-10-18T05:32:52.336Z,101106.31
2022-10-18T05:33:53.996Z,101106.84
2022-10-18T05:34:55.750Z,101105.66
2022-10-18T05:35:57.633Z,101105.31
2022-10-18T05:36:59.783Z,101094.41
2022-10-18T05:38:07.806Z,101073.47
2022-10-18T05:39:09.650Z,101101.47
2022-10-18T05:40:11.832Z,101096.56
2022-10-18T05:41:14.280Z,101104.66
2022-10-18T05:42:16.206Z,101100.63
2022-10-18T05:43:17.927Z,101106.69
2022-10-18T05:44:19.812Z,101103.03
2022-10-18T05:45:21.512Z,101118.19
2022-10-18T05:46:23.275Z,101117.16
2022-10-18T05:47:25.036Z,101116.84
2022-10-18T05:48:27.009Z,101112.28
2022-10-18T05:49:28.675Z,101113.63
2022-10-18T05:50:30.457Z,101114.47
2022-10-18T05:51:32.346Z,101116.16
2022-10-18T05:52:34.399Z,101107.06
2022-10-18T05:53:37.746Z,101121.22
2022-10-18T05:54:40.543Z,101112.13
2022-10-18T05:55:42.255Z,101120.06
2022-10-18T05:56:44.070Z,101119.88
2022-10-18T05:57:50.350Z,101110.78
2022-10-18T05:58:52.411Z,101120.59
2022-10-18T05:59:54.223Z,101111.50
2022-10-18T06:01:00.131Z,101113.34
2022-10-18T06:02:02.544Z,101116.53
2022-10-18T06:03:04.333Z,101118.22
2022-10-18T06:04:06.581Z,101112.00
2022-10-18T06:05:08.467Z,101101.19
2022-10-18T06:06:11.926Z,101101.00
2022-10-18T06:07:13.637Z,101123.28
2022-10-18T06:08:15.447Z,101108.97
2022-10-18T06:09:17.284Z,101110.66
2022-10-18T06:10:19.046Z,101111.50
2022-10-18T06:11:21.218Z,101108.78
2022-10-18T06:12:23.067Z,101106.09
2022-10-18T06:13:24.818Z,101108.66
2022-10-18T06:14:26.611Z,101098.69
2022-10-18T06:15:28.626Z,101111.34
2022-10-18T06:16:32.612Z,101118.41
2022-10-18T06:17:35.121Z,101103.41
2022-10-18T06:18:37.776Z,101112.16
2022-10-18T06:19:39.603Z,101125.31
2022-10-18T06:20:41.315Z,101121.78
2022-10-18T06:21:43.964Z,101119.09
2022-10-18T06:22:45.659Z,101119.25
2022-10-18T06:23:55.476Z,101123.28
2022-10-18T06:24:57.377Z,101120.59
2022-10-18T06:26:01.778Z,101127.66
2022-10-18T06:27:08.930Z,101134.78
2022-10-18T06:28:12.272Z,101124.13
2022-10-18T06:29:14.302Z,101138.13
2022-10-18T06:30:16.194Z,101118.41
2022-10-18T06:31:18.518Z,101123.63
2022-10-18T06:32:20.249Z,101139.81
2022-10-18T06:33:22.034Z,101133.56
2022-10-18T06:34:23.718Z,101137.81
2022-10-18T06:35:25.393Z,101136.78
2022-10-18T06:36:27.439Z,101132.75
2022-10-18T06:37:30.703Z,101136.94
2022-10-18T06:38:33.383Z,101142.84
2022-10-18T06:39:35.103Z,101145.38
2022-10-18T06:40:38.220Z,101143.69
2022-10-18T06:41:40.068Z,101145.38
2022-10-18T06:43:00.546Z,101144.19
2022-10-18T06:44:15.395Z,101150.75
2022-10-18T06:45:18.548Z,101145.53
2022-10-18T06:46:20.306Z,101147.56
2022-10-18T06:47:22.331Z,101142.84
2022-10-18T06:48:24.508Z,101152.97
2022-10-18T06:49:26.320Z,101152.97
2022-10-18T06:50:28.142Z,101153.97
2022-10-18T06:51:29.831Z,101158.34
2022-10-18T06:52:31.686Z,101152.97
2022-10-18T06:53:43.694Z,101156.47
2022-10-18T06:54:50.425Z,101159.34
2022-10-18T06:55:52.404Z,101142.31
2022-10-18T06:56:57.765Z,101160.72
2022-10-18T06:57:59.593Z,101162.22
2022-10-18T06:59:01.873Z,101152.97
2022-10-18T07:00:05.273Z,101159.69
2022-10-18T07:01:16.038Z,101163.22
2022-10-18T07:02:17.945Z,101166.44
2022-10-18T07:03:20.735Z,101171.81
2022-10-18T07:04:22.450Z,101174.69
2022-10-18T07:05:24.392Z,101163.75
2022-10-18T07:06:26.182Z,101160.38
2022-10-18T07:07:31.659Z,101176.69
2022-10-18T07:08:34.378Z,101178.22
2022-10-18T07:09:36.123Z,101178.22
2022-10-18T07:10:37.986Z,101165.75
2022-10-18T07:11:39.719Z,101173.84
2022-10-18T07:12:41.396Z,101180.94
2022-10-18T07:13:43.221Z,101175.69
2022-10-18T07:14:46.436Z,101181.25
2022-10-18T07:15:48.243Z,101171.16
2022-10-18T07:16:49.925Z,101173.34
2022-10-18T07:17:51.656Z,101167.44
2022-10-18T07:18:53.419Z,101176.56
2022-10-18T07:19:55.793Z,101182.75
2022-10-18T07:20:57.555Z,101179.91
2022-10-18T07:21:59.231Z,101178.56
2022-10-18T07:23:01.010Z,101175.88
2022-10-18T07:24:02.799Z,101184.31
2022-10-18T07:25:08.759Z,101184.47
2022-10-18T07:26:15.751Z,101190.69
2022-10-18T07:27:17.489Z,101188.69
2022-10-18T07:28:19.250Z,101187.84
2022-10-18T07:29:21.016Z,101194.06
2022-10-18T07:30:22.687Z,101194.06
2022-10-18T07:31:25.472Z,101195.94
2022-10-18T07:32:27.227Z,101178.06
2022-10-18T07:33:29.459Z,101179.59
2022-10-18T07:34:31.161Z,101196.78
2022-10-18T07:35:32.922Z,101171.16
2022-10-18T07:36:35.071Z,101181.59
2022-10-18T07:37:36.901Z,101194.06
2022-10-18T07:38:38.814Z,101183.44
2022-10-18T07:39:40.494Z,101197.63
2022-10-18T07:40:42.180Z,101201.34
2022-10-18T07:41:43.955Z,101195.75
2022-10-18T07:42:45.650Z,101194.94
2022-10-18T07:43:50.892Z,101199.47
2022-10-18T07:44:52.681Z,101184.78
2022-10-18T07:45:59.482Z,101203.84
2022-10-18T07:47:01.143Z,101194.75
2022-10-18T07:48:02.931Z,101196.44
2022-10-18T07:49:04.784Z,101200.13
2022-10-18T07:50:07.345Z,101186.66
2022-10-18T07:51:09.930Z,101201.81
2022-10-18T07:52:11.855Z,101201.81
2022-10-18T07:53:13.697Z,101200.31
2022-10-18T07:54:15.580Z,101202.69
2022-10-18T07:55:17.425Z,101207.22
2022-10-18T07:56:21.854Z,101203.69
2022-10-18T07:57:23.632Z,101200.81
2022-10-18T07:58:25.340Z,101202.69
2022-10-18T07:59:27.059Z,101203.50
2022-10-18T08:00:28.768Z,101194.25
2022-10-18T08:01:30.604Z,101197.78
2022-10-18T08:02:32.674Z,101198.13
2022-10-18T08:03:35.767Z,101203.84
2022-10-18T08:04:37.531Z,101206.06
2022-10-18T08:05:39.265Z,101204.38
2022-10-18T08:06:41.012Z,101196.44
2022-10-18T08:07:42.695Z,101205.19
2022-10-18T08:08:45.424Z,101205.19
2022-10-18T08:09:47.122Z,101205.19
2022-10-18T08:10:49.246Z,101192.25
2022-10-18T08:11:50.975Z,101213.28
2022-10-18T08:12:54.396Z,101206.88
2022-10-18T08:13:56.126Z,101193.75
2022-10-18T08:14:57.843Z,101212.28
2022-10-18T08:16:04.581Z,101205.19
2022-10-18T08:17:06.352Z,101219.34
2022-10-18T08:18:08.446Z,101219.34
2022-10-18T08:19:10.296Z,101217.66
2022-10-18T08:20:26.493Z,101217.66
2022-10-18T08:21:32.358Z,101222.38
2022-10-18T08:22:34.039Z,101224.41
2022-10-18T08:23:36.379Z,101221.91
2022-10-18T08:24:38.142Z,101223.72
2022-10-18T08:25:40.140Z,101229.13
2022-10-18T08:26:42.122Z,101226.78
2022-10-18T08:27:43.834Z,101230.13
2022-10-18T08:28:53.729Z,101240.94
2022-10-18T08:30:02.116Z,101231.81
2022-10-18T08:31:06.028Z,101243.28
2022-10-18T08:32:10.386Z,101249.53
2022-10-18T08:33:12.126Z,101234.53
2022-10-18T08:34:19.363Z,101247.00
2022-10-18T08:35:21.496Z,101246.84
2022-10-18T08:36:23.618Z,101244.28
2022-10-18T08:37:25.402Z,101227.09
2022-10-18T08:38:31.331Z,101237.22
2022-10-18T08:39:33.099Z,101241.59
2022-10-18T08:40:35.155Z,101223.41
2022-10-18T08:41:36.954Z,101244.28
2022-10-18T08:42:38.584Z,101244.28
2022-10-18T08:44:06.382Z,101239.75
2022-10-18T08:45:23.455Z,101233.69
2022-10-18T08:46:33.970Z,101234.38
2022-10-18T08:47:44.404Z,101234.53
2022-10-18T08:48:50.832Z,101231.16
2022-10-18T08:49:55.883Z,101230.13
2022-10-18T08:50:58.756Z,101234.38
2022-10-18T08:52:00.663Z,101242.28
2022-10-18T08:53:17.632Z,101239.25
2022-10-18T08:54:37.690Z,101238.22
2022-10-18T08:55:54.947Z,101232.53
2022-10-18T08:57:02.477Z,101237.94
2022-10-18T08:58:20.941Z,101237.94
2022-10-18T08:59:25.415Z,101234.38
2022-10-18T09:00:31.286Z,101225.75
2022-10-18T09:01:36.235Z,101236.53
2022-10-18T09:03:00.419Z,101227.28
2022-10-18T09:04:20.665Z,101230.50
2022-10-18T09:05:36.567Z,101227.97
2022-10-18T09:06:53.314Z,101236.22
2022-10-18T09:08:35.588Z,101231.00
2022-10-18T09:09:41.374Z,101234.72
2022-10-18T09:11:04.082Z,101239.63
2022-10-18T09:12:24.027Z,101237.59
2022-10-18T09:13:44.119Z,101233.88
2022-10-18T09:14:56.724Z,101238.41
2022-10-18T09:16:04.892Z,101246.16
2022-10-18T09:17:15.861Z,101241.59
2022-10-18T09:18:28.622Z,101240.09
2022-10-18T09:19:55.010Z,101244.47
2022-10-18T09:20:59.411Z,101240.63
2022-10-18T09:22:12.447Z,101240.78
2022-10-18T09:23:47.913Z,101249.19
2022-10-18T09:24:49.640Z,101255.47
2022-10-18T09:26:03.415Z,101259.81
2022-10-18T09:27:12.374Z,101253.25
2022-10-18T09:28:16.093Z,101261.50
2022-10-18T09:29:40.059Z,101250.22
2022-10-18T09:30:45.656Z,101253.25
2022-10-18T09:32:04.763Z,101262.50
2022-10-18T09:33:12.323Z,101267.75
2022-10-18T09:34:51.174Z,101273.31
2022-10-18T09:36:06.386Z,101266.41
2022-10-18T09:37:20.957Z,101263.88
2022-10-18T09:38:28.641Z,101269.28
2022-10-18T09:39:35.501Z,101268.56
2022-10-18T09:40:48.753Z,101263.84
2022-10-18T09:41:57.984Z,101270.28
2022-10-18T09:43:16.274Z,101270.44
2022-10-18T09:44:29.188Z,101274.81
2022-10-18T09:45:43.046Z,101272.81
2022-10-18T09:46:55.512Z,101278.53
2022-10-18T09:48:08.607Z,101271.97
2022-10-18T09:49:23.575Z,101270.28
2022-10-18T09:50:35.329Z,101277.38
2022-10-18T09:51:42.166Z,101281.09
2022-10-18T09:53:19.371Z,101281.41
2022-10-18T09:54:55.088Z,101278.88
2022-10-18T09:56:06.645Z,101281.09
2022-10-18T09:57:25.469Z,101278.72
2022-10-18T09:58:34.387Z,101277.03
2022-10-18T09:59:41.502Z,101286.13
2022-10-18T10:00:52.790Z,101276.38
2022-10-18T10:01:54.614Z,101283.59
2022-10-18T10:02:56.383Z,101283.78
2022-10-18T10:03:58.083Z,101284.75
2022-10-18T10:04:59.830Z,101284.09
2022-10-18T10:06:11.552Z,101280.03
2022-10-18T10:07:19.756Z,101286.63
2022-10-18T10:08:33.796Z,101287.31
2022-10-18T10:09:49.061Z,101295.25
2022-10-18T10:10:50.739Z,101289.00
2022-10-18T10:11:52.836Z,101298.09
2022-10-18T10:13:17.672Z,101307.72
2022-10-18T10:14:26.260Z,101300.94
2022-10-18T10:15:31.278Z,101305.84
2022-10-18T10:17:02.637Z,101310.56
2022-10-18T10:18:20.539Z,101303.69
2022-10-18T10:19:32.332Z,101316.31
2022-10-18T10:20:42.886Z,101312.09
2022-10-18T10:21:45.047Z,101323.72
2022-10-18T10:22:48.096Z,101333.00
2022-10-18T10:23:55.996Z,101329.63
2022-10-18T10:24:57.864Z,101333.16
2022-10-18T10:26:02.767Z,101328.25
2022-10-18T10:27:14.858Z,101332.47
2022-10-18T10:28:20.458Z,101340.41
2022-10-18T10:29:49.300Z,101334.34
2022-10-18T10:30:51.224Z,101336.03
2022-10-18T10:32:04.141Z,101328.91
2022-10-18T10:33:07.162Z,101346.31
2022-10-18T10:34:14.967Z,101337.00
2022-10-18T10:35:42.101Z,101339.03
2022-10-18T10:36:53.583Z,101344.97
2022-10-18T10:37:55.363Z,101341.59
2022-10-18T10:39:13.856Z,101350.03
2022-10-18T10:40:19.248Z,101351.56
2022-10-18T10:41:23.929Z,101341.25
2022-10-18T10:42:25.843Z,101349.19
2022-10-18T10:43:39.756Z,101340.25
2022-10-18T10:44:54.535Z,101335.19
2022-10-18T10:46:20.339Z,101352.91
2022-10-18T10:47:32.042Z,101358.47
2022-10-18T10:48:41.456Z,101352.38
2022-10-18T10:49:47.710Z,101355.75
2022-10-18T10:51:10.111Z,101346.44
2022-10-18T10:52:28.755Z,101361.34
2022-10-18T10:53:35.703Z,101357.09
2022-10-18T10:54:39.171Z,101362.34
2022-10-18T10:55:40.904Z,101362.34
2022-10-18T10:57:01.332Z,101365.88
2022-10-18T10:58:03.162Z,101356.91
2022-10-18T10:59:17.479Z,101363.34
2022-10-18T11:00:34.302Z,101354.06
2022-10-18T11:01:36.647Z,101363.16
2022-10-18T11:02:38.599Z,101364.38
2022-10-18T11:03:47.159Z,101357.44
2022-10-18T11:04:54.656Z,101355.53
2022-10-18T11:05:58.050Z,101366.19
2022-10-18T11:07:02.813Z,101367.41
2022-10-18T11:08:05.548Z,101354.72
2022-10-18T11:09:18.234Z,101370.91
2022-10-18T11:10:24.593Z,101369.91
2022-10-18T11:11:35.051Z,101373.47
2022-10-18T11:12:38.571Z,101362.50
2022-10-18T11:14:01.582Z,101370.59
2022-10-18T11:15:28.689Z,101370.09
2022-10-18T11:16:39.486Z,101369.25
2022-10-18T11:17:47.699Z,101371.25
2022-10-18T11:18:52.813Z,101376.66
2022-10-18T11:20:36.902Z,101376.00
2022-10-18T11:21:40.244Z,101365.03
2022-10-18T11:22:49.589Z,101383.75
2022-10-18T11:23:51.538Z,101384.59
2022-10-18T11:24:53.347Z,101370.38
2022-10-18T11:26:28.799Z,101375.50
2022-10-18T11:27:55.139Z,101382.59
2022-10-18T11:29:31.307Z,101387.34
2022-10-18T11:30:48.839Z,101391.06
2022-10-18T11:32:02.610Z,101386.97
2022-10-18T11:33:16.400Z,101384.28
2022-10-18T11:34:30.018Z,101385.44
2022-10-18T11:36:04.697Z,101373.28
2022-10-18T11:37:32.132Z,101386.63
2022-10-18T11:38:45.542Z,101388.66
2022-10-18T11:40:22.362Z,101396.91
2022-10-18T11:41:38.462Z,101393.03
2022-10-18T11:43:18.775Z,101395.06
2022-10-18T11:44:40.210Z,101386.63
2022-10-18T11:46:04.742Z,101396.75
2022-10-18T11:47:23.371Z,101395.88
2022-10-18T11:48:52.520Z,101387.31
2022-10-18T11:50:13.378Z,101394.88
2022-10-18T11:51:34.047Z,101394.38
2022-10-18T11:53:27.742Z,101397.28
2022-10-18T11:54:53.574Z,101408.22
2022-10-18T11:56:34.814Z,101405.53
2022-10-18T11:57:36.486Z,101404.66
2022-10-18T11:58:56.947Z,101404.50
2022-10-18T12:00:22.659Z,101410.72
2022-10-18T12:01:38.071Z,101405.19
2022-10-18T12:02:51.154Z,101404.50
2022-10-18T12:04:04.861Z,101419.13
2022-10-18T12:05:24.509Z,101414.59
2022-10-18T12:06:32.858Z,101419.31
2022-10-18T12:07:49.124Z,101422.69
2022-10-18T12:09:00.232Z,101415.63
2022-10-18T12:10:04.477Z,101415.63
2022-10-18T12:11:15.997Z,101419.31
2022-10-18T12:12:31.662Z,101417.44
2022-10-18T12:13:40.567Z,101421.00
2022-10-18T12:14:59.426Z,101408.19
2022-10-18T12:16:05.931Z,101400.38
2022-10-18T12:17:49.627Z,101414.75
2022-10-18T12:20:29.972Z,101419.34
2022-10-18T12:21:34.355Z,101419.34
2022-10-18T12:22:43.140Z,101420.69
2022-10-18T12:23:47.895Z,101422.69
2022-10-18T12:24:49.824Z,101420.16
2022-10-18T12:25:55.785Z,101421.34
2022-10-18T12:27:00.466Z,101415.94
2022-10-18T12:28:16.588Z,101418.47
2022-10-18T12:29:38.543Z,101423.53
2022-10-18T12:30:51.267Z,101422.38
2022-10-18T12:32:08.962Z,101423.38
2022-10-18T12:33:27.881Z,101419.66
2022-10-18T12:34:43.646Z,101424.88
2022-10-18T12:35:53.733Z,101425.75
2022-10-18T12:38:19.928Z,101416.13
2022-10-18T12:40:09.379Z,101416.66
2022-10-18T12:41:33.603Z,101406.91
2022-10-18T12:42:42.878Z,101406.53
2022-10-18T12:43:52.019Z,101407.53
2022-10-18T12:45:24.917Z,101408.69
2022-10-18T12:46:44.847Z,101413.47
2022-10-18T12:47:46.752Z,101413.75
2022-10-18T12:49:03.974Z,101414.09
2022-10-18T12:50:23.195Z,101406.84
2022-10-18T12:51:25.114Z,101404.81